Lufkin, TX (75901)

2:47 PM CST on February 06, 2016 (GMT -0600)
Brookhollow | | Change Station
CLOSE
Current Station
Personal Weather Station
Location: Lufkin, TX
Elevation: 299 ft
Nearby Weather Stations

Elev 299 ft 31.31 °N, 94.76 °W | Updated 14 minutes ago

Partly Cloudy
Partly Cloudy
52.3 °F
Feels Like 52.3 °F
N
2.7
Wind Variable Wind from West

Today
High -- | Low -- °F
--% Chance of Precip.
Yesterday
High -- | Low -- °F
Precip. -- in
Pressure 30.30 in
Visibility 10.0 miles
Clouds Few 2900 ft
Scattered Clouds 8000 ft
Dew Point 41 °F
Humidity 66%
Rainfall 0.11 in
Snow Depth Not available.
7:08 AM 5:58 PM
Waning Crescent, 4% visible
METAR KLFK 061953Z AUTO VRB04KT 10SM FEW029 SCT080 12/04 A3029 RMK AO2 SLP258 T01170039
Pressure 30.30 in
Visibility 10.0 miles
Clouds Few 2900 ft
Scattered Clouds 8000 ft
Dew Point 41 °F
Humidity 66%
Rainfall 0.11 in
Snow Depth Not available.
7:08 AM 5:58 PM
Waning Crescent, 4% visible
METAR KLFK 061953Z AUTO VRB04KT 10SM FEW029 SCT080 12/04 A3029 RMK AO2 SLP258 T01170039

10-Day Weather Forecast

Almanac

Astronomy

Feb. 06, 2016 Rise Set
Actual Time
Civil Twilight
Nautical Twilight
Astronomical Twilight
Moon
Length of Visible Light
Length of Day
Tomorrow will be .
, % of the Moon is Illuminated

Today's Extremes

State Highs State Lows

Community

WunderPhotos

Upload Photos

1,891,046 photos uploaded!

WunderBlog® & News

Nearby

Air Quality

  Air Quality AQ Index Pollutant
Not available.

Snow Depth

Station Depth Elevation

Earthquake Activity

City Distance Mag. Time & Date
Minimum magnitude displayed is 2.5.

Coastal Water Temperatures

Place Temperature

Stations

Nearby Weather Stations

Station Location Temp. Windchill Dew Point Humidity Wind Precip. Elev Updated Type
                   

Watches & Warnings

There are currently no watches in effect.